createdAt,value
2019-05-03T00:00:18.492Z,96413.92
2019-05-03T00:02:59.179Z,96413.89
2019-05-03T00:05:33.576Z,96417.05
2019-05-03T00:08:07.015Z,96411.45
2019-05-03T00:10:39.008Z,96410.64
2019-05-03T00:13:10.069Z,96413.83
2019-05-03T00:15:59.933Z,96410.25
2019-05-03T00:18:32.806Z,96408.56
2019-05-03T00:21:04.518Z,96412.10
2019-05-03T00:23:35.184Z,96406.61
2019-05-03T00:26:06.475Z,96412.09
2019-05-03T00:28:37.741Z,96410.52
2019-05-03T00:31:09.209Z,96407.22
2019-05-03T00:33:53.814Z,96401.60
2019-05-03T01:03:03.485Z,96395.42
2019-05-03T01:05:38.692Z,96396.14
2019-05-03T01:08:09.711Z,96394.12
2019-05-03T01:10:42.130Z,96393.74
2019-05-03T01:13:14.098Z,96397.80
2019-05-03T01:15:55.827Z,96394.59
2019-05-03T01:18:27.241Z,96395.67
2019-05-03T01:20:58.121Z,96396.13
2019-05-03T01:23:29.377Z,96391.00
2019-05-03T01:26:02.443Z,96388.97
2019-05-03T01:28:33.856Z,96398.17
2019-05-03T01:31:05.190Z,96397.43
2019-05-03T01:33:36.875Z,96396.17
2019-05-03T01:36:08.416Z,96396.09
2019-05-03T01:38:42.004Z,96397.89
2019-05-03T01:41:12.537Z,96401.95
2019-05-03T01:43:50.140Z,96404.36
2019-05-03T01:46:22.763Z,96394.59
2019-05-03T01:49:13.618Z,96399.03
2019-05-03T01:52:06.887Z,96396.35
2019-05-03T01:54:38.327Z,96394.30
2019-05-03T01:57:09.271Z,96405.56
2019-05-03T01:59:42.606Z,96398.61
2019-05-03T02:02:27.501Z,96403.98
2019-05-03T02:05:15.890Z,96400.52
2019-05-03T02:07:48.681Z,96406.48
2019-05-03T02:10:19.719Z,96404.52
2019-05-03T02:12:52.247Z,96406.13
2019-05-03T02:15:23.645Z,96405.38
2019-05-03T02:17:55.390Z,96404.84
2019-05-03T02:20:26.431Z,96400.84
2019-05-03T02:22:57.360Z,96400.86
2019-05-03T02:25:28.638Z,96401.25
2019-05-03T02:28:01.793Z,96407.59
2019-05-03T02:30:33.383Z,96403.72
2019-05-03T02:33:04.720Z,96404.25
2019-05-03T02:35:35.636Z,96401.25
2019-05-03T02:38:06.947Z,96400.56
2019-05-03T02:40:39.172Z,96403.50
2019-05-03T02:43:31.069Z,96402.81
2019-05-03T02:46:19.949Z,96399.36
2019-05-03T02:49:09.436Z,96400.30
2019-05-03T02:51:40.465Z,96397.79
2019-05-03T02:54:12.424Z,96397.39
2019-05-03T02:56:45.824Z,96398.41
2019-05-03T02:59:16.170Z,96395.25
2019-05-03T03:01:48.514Z,96398.27
2019-05-03T03:04:19.983Z,96398.27
2019-05-03T03:06:55.616Z,96397.39
2019-05-03T03:09:26.869Z,96396.61
2019-05-03T03:12:01.281Z,96394.09
2019-05-03T03:14:36.255Z,96398.22
2019-05-03T03:17:09.505Z,96395.64
2019-05-03T03:19:46.155Z,96401.40
2019-05-03T03:22:19.309Z,96402.63
2019-05-03T03:24:55.894Z,96396.94
2019-05-03T03:27:29.012Z,96399.53
2019-05-03T03:30:29.046Z,96396.13
2019-05-03T03:33:08.145Z,96395.08
2019-05-03T03:35:38.477Z,96392.96
2019-05-03T03:38:11.731Z,96396.56
2019-05-03T03:40:45.293Z,96394.69
2019-05-03T03:43:19.183Z,96393.27
2019-05-03T03:45:51.694Z,96395.84
2019-05-03T03:48:26.553Z,96397.58
2019-05-03T03:50:58.228Z,96406.28
2019-05-03T03:53:35.416Z,96401.09
2019-05-03T03:56:06.185Z,96408.68
2019-05-03T03:58:37.437Z,96408.42
2019-05-03T04:01:08.945Z,96409.97
2019-05-03T04:03:40.743Z,96411.39
2019-05-03T04:06:11.907Z,96417.96
2019-05-03T04:08:45.348Z,96421.63
2019-05-03T04:11:16.843Z,96425.48
2019-05-03T04:13:49.047Z,96428.44
2019-05-03T04:16:29.877Z,96431.52
2019-05-03T04:19:05.908Z,96430.70
2019-05-03T04:21:37.191Z,96430.48
2019-05-03T04:24:19.887Z,96442.08
2019-05-03T04:26:56.218Z,96440.37
2019-05-03T04:29:27.276Z,96434.27
2019-05-03T04:32:01.586Z,96442.55
2019-05-03T04:34:37.279Z,96449.08
2019-05-03T04:37:11.847Z,96452.67
2019-05-03T04:39:46.809Z,96448.67
2019-05-03T04:42:21.318Z,96455.23
2019-05-03T04:44:52.399Z,96459.97
2019-05-03T04:47:26.280Z,96463.98
2019-05-03T04:49:57.160Z,96456.92
2019-05-03T04:52:28.361Z,96463.83
2019-05-03T04:55:00.629Z,96460.02
2019-05-03T04:57:44.239Z,96461.83
2019-05-03T05:00:10.577Z,96462.94
2019-05-03T05:02:38.788Z,96468.28
2019-05-03T05:05:10.800Z,96464.43
2019-05-03T05:07:45.412Z,96465.63
2019-05-03T05:10:15.697Z,96462.48
2019-05-03T05:12:46.630Z,96473.39
2019-05-03T05:15:17.770Z,96463.61
2019-05-03T05:17:59.522Z,96470.20
2019-05-03T05:20:40.510Z,96481.25
2019-05-03T05:23:12.199Z,96482.84
2019-05-03T05:25:48.538Z,96485.11
2019-05-03T05:28:31.616Z,96489.45
2019-05-03T05:31:04.792Z,96493.20
2019-05-03T05:33:47.173Z,96490.03
2019-05-03T05:36:18.417Z,96496.67
2019-05-03T05:38:50.274Z,96496.00
2019-05-03T05:41:32.461Z,96497.91
2019-05-03T05:44:05.261Z,96494.78
2019-05-03T05:46:45.343Z,96497.56
2019-05-03T05:49:17.959Z,96498.75
2019-05-03T05:51:49.258Z,96501.19
2019-05-03T05:54:20.216Z,96508.94
2019-05-03T05:57:05.140Z,96504.80
2019-05-03T05:59:49.609Z,96507.36
2019-05-03T06:02:20.950Z,96505.93
2019-05-03T06:04:54.349Z,96509.41
2019-05-03T06:07:46.673Z,96506.57
2019-05-03T06:10:24.865Z,96512.19
2019-05-03T06:13:15.256Z,96509.23
2019-05-03T06:16:01.301Z,96516.19
2019-05-03T06:18:40.936Z,96515.80
2019-05-03T06:21:25.407Z,96520.52
2019-05-03T06:24:00.713Z,96520.31
2019-05-03T06:26:49.081Z,96526.83
2019-05-03T06:29:20.454Z,96519.76
2019-05-03T06:32:11.006Z,96522.11
2019-05-03T06:34:42.445Z,96523.37
2019-05-03T06:37:15.672Z,96522.52
2019-05-03T06:39:46.010Z,96523.06
2019-05-03T06:42:19.347Z,96525.02
2019-05-03T06:44:50.946Z,96521.05
2019-05-03T06:47:22.701Z,96521.89
2019-05-03T06:49:55.250Z,96529.59
2019-05-03T06:52:29.276Z,96524.33
2019-05-03T06:55:00.409Z,96521.34
2019-05-03T06:57:32.704Z,96523.75
2019-05-03T07:00:21.356Z,96526.16
2019-05-03T07:03:11.627Z,96527.83
2019-05-03T07:06:00.101Z,96524.62
2019-05-03T07:08:56.093Z,96527.55
2019-05-03T07:11:27.437Z,96528.73
2019-05-03T07:13:58.042Z,96523.05
2019-05-03T07:16:30.061Z,96530.94
2019-05-03T07:19:01.844Z,96526.87
2019-05-03T07:21:35.288Z,96528.28
2019-05-03T07:24:06.226Z,96529.81
2019-05-03T07:26:37.926Z,96532.82
2019-05-03T07:29:09.346Z,96535.90
2019-05-03T07:31:40.299Z,96539.27
2019-05-03T07:34:11.644Z,96537.53
2019-05-03T07:36:44.623Z,96536.59
2019-05-03T07:39:15.698Z,96532.81
2019-05-03T07:41:46.722Z,96539.75
2019-05-03T07:44:17.658Z,96536.39
2019-05-03T07:46:49.722Z,96541.22
2019-05-03T07:49:44.739Z,96545.78
2019-05-03T07:52:16.230Z,96542.88
2019-05-03T07:54:47.791Z,96542.63
2019-05-03T07:57:30.730Z,96547.17
2019-05-03T08:00:02.051Z,96551.19
2019-05-03T08:02:33.354Z,96544.48
2019-05-03T08:05:05.263Z,96542.92
2019-05-03T08:07:36.940Z,96547.63
2019-05-03T08:10:09.489Z,96546.95
2019-05-03T08:12:41.510Z,96551.75
2019-05-03T08:15:11.919Z,96551.61
2019-05-03T08:17:45.001Z,96551.80
2019-05-03T08:20:16.610Z,96553.12
2019-05-03T08:22:48.638Z,96555.58
2019-05-03T08:25:20.208Z,96566.02
2019-05-03T08:27:51.136Z,96558.45
2019-05-03T08:30:27.099Z,96559.42
2019-05-03T08:33:05.760Z,96566.45
2019-05-03T08:35:42.247Z,96563.02
2019-05-03T08:38:15.307Z,96567.56
2019-05-03T08:40:48.886Z,96564.52
2019-05-03T08:43:19.938Z,96569.63
2019-05-03T08:45:51.201Z,96559.30
2019-05-03T08:48:22.462Z,96570.78
2019-05-03T08:50:55.783Z,96568.57
2019-05-03T08:53:27.063Z,96570.45
2019-05-03T08:55:58.659Z,96571.05
2019-05-03T08:58:30.368Z,96566.52
2019-05-03T09:01:01.298Z,96575.74
2019-05-03T09:03:32.240Z,96570.28
2019-05-03T09:06:04.666Z,96565.55
2019-05-03T09:08:36.271Z,96570.59
2019-05-03T09:11:15.404Z,96565.36
2019-05-03T09:13:55.714Z,96560.55
2019-05-03T09:16:27.317Z,96558.44
2019-05-03T09:18:58.324Z,96558.88
2019-05-03T09:21:29.784Z,96559.50
2019-05-03T09:24:01.790Z,96556.30
2019-05-03T09:26:34.688Z,96559.30
2019-05-03T09:29:06.007Z,96556.68
2019-05-03T09:31:37.766Z,96557.21
2019-05-03T09:34:09.038Z,96555.94
2019-05-03T09:36:40.752Z,96554.63
2019-05-03T09:39:11.694Z,96556.75
2019-05-03T09:41:45.051Z,96556.52
2019-05-03T09:44:18.837Z,96553.25
2019-05-03T09:46:50.432Z,96558.85
2019-05-03T09:49:25.644Z,96558.80
2019-05-03T09:52:02.909Z,96557.25
2019-05-03T09:54:45.306Z,96553.42
2019-05-03T09:57:16.461Z,96564.05
2019-05-03T09:59:57.234Z,96557.98
2019-05-03T10:02:30.506Z,96563.81
2019-05-03T10:05:02.113Z,96559.20
2019-05-03T10:07:35.090Z,96564.00
2019-05-03T10:10:06.734Z,96566.70
2019-05-03T10:12:45.499Z,96565.27
2019-05-03T10:15:40.410Z,96560.23
2019-05-03T10:18:15.053Z,96558.96
2019-05-03T10:20:46.166Z,96556.82
2019-05-03T10:23:39.249Z,96556.59
2019-05-03T10:26:16.574Z,96563.83
2019-05-03T10:28:47.547Z,96569.41
2019-05-03T10:31:20.875Z,96554.83
2019-05-03T10:34:01.733Z,96552.95
2019-05-03T10:36:32.757Z,96559.95
2019-05-03T10:39:04.803Z,96555.50
2019-05-03T10:41:35.904Z,96556.02
2019-05-03T10:44:06.272Z,96554.88
2019-05-03T10:46:37.569Z,96558.69
2019-05-03T10:49:08.673Z,96560.97
2019-05-03T10:51:45.200Z,96559.03
2019-05-03T10:54:15.998Z,96558.48
2019-05-03T10:56:55.918Z,96562.58
2019-05-03T10:59:27.300Z,96555.03
2019-05-03T11:02:07.733Z,96565.19
2019-05-03T11:04:54.906Z,96558.34
2019-05-03T11:07:26.407Z,96553.52
2019-05-03T11:09:57.574Z,96559.05
2019-05-03T11:12:28.189Z,96555.33
2019-05-03T11:14:59.511Z,96553.90
2019-05-03T11:17:30.574Z,96558.08
2019-05-03T11:20:22.195Z,96548.44
2019-05-03T11:22:46.031Z,96550.82
2019-05-03T11:25:17.606Z,96550.91
2019-05-03T11:27:52.865Z,96549.97
2019-05-03T11:30:24.658Z,96553.77
2019-05-03T11:33:18.923Z,96551.56
2019-05-03T11:35:55.800Z,96544.52
2019-05-03T11:38:29.396Z,96550.28
2019-05-03T11:41:00.557Z,96549.72
2019-05-03T11:43:31.588Z,96540.91
2019-05-03T11:46:02.829Z,96541.08
2019-05-03T11:48:35.019Z,96536.92
2019-05-03T11:51:05.828Z,96543.41
2019-05-03T11:53:37.760Z,96536.29
2019-05-03T11:56:14.855Z,96542.96
2019-05-03T11:58:48.308Z,96535.52
2019-05-03T12:01:37.840Z,96532.36
2019-05-03T12:04:10.101Z,96538.87
2019-05-03T12:06:41.465Z,96532.66
2019-05-03T12:09:15.496Z,96538.64
2019-05-03T12:11:46.514Z,96540.44
2019-05-03T12:14:20.332Z,96542.92
2019-05-03T12:17:18.826Z,96538.91
2019-05-03T12:19:36.925Z,96531.50
2019-05-03T12:22:06.454Z,96536.92
2019-05-03T12:24:38.328Z,96544.06
2019-05-03T12:27:10.691Z,96540.98
2019-05-03T12:29:45.399Z,96532.73
2019-05-03T12:32:20.837Z,96533.69
2019-05-03T12:34:52.273Z,96539.78
2019-05-03T12:37:24.497Z,96537.68
2019-05-03T12:39:56.593Z,96536.94
2019-05-03T12:42:27.327Z,96532.75
2019-05-03T12:44:59.125Z,96538.15
2019-05-03T12:47:34.780Z,96529.16
2019-05-03T12:50:07.185Z,96535.63
2019-05-03T12:52:49.560Z,96533.59
2019-05-03T12:55:11.831Z,96529.41
2019-05-03T12:57:45.763Z,96537.48
2019-05-03T13:00:50.327Z,96538.08
2019-05-03T13:03:37.194Z,96538.97
2019-05-03T13:06:10.704Z,96535.73
2019-05-03T13:08:45.706Z,96529.66
2019-05-03T13:11:19.982Z,96532.06
2019-05-03T13:13:51.942Z,96530.20
2019-05-03T13:16:24.763Z,96524.20
2019-05-03T13:18:58.091Z,96523.70
2019-05-03T13:21:28.743Z,96515.38
2019-05-03T13:24:01.397Z,96517.78
2019-05-03T13:26:35.583Z,96512.41
2019-05-03T13:29:06.554Z,96509.79
2019-05-03T13:32:02.402Z,96506.62
2019-05-03T13:34:35.389Z,96497.64
2019-05-03T13:37:25.405Z,96494.13
2019-05-03T13:40:02.288Z,96490.95
2019-05-03T13:42:35.068Z,96492.27
2019-05-03T13:45:07.194Z,96481.64
2019-05-03T13:47:57.638Z,96478.59
2019-05-03T13:50:29.342Z,96470.48
2019-05-03T13:53:09.209Z,96467.36
2019-05-03T13:55:44.506Z,96458.56
2019-05-03T13:58:16.001Z,96454.55
2019-05-03T14:00:51.183Z,96448.53
2019-05-03T14:03:27.910Z,96454.38
2019-05-03T14:05:59.277Z,96453.40
2019-05-03T14:08:30.586Z,96453.16
2019-05-03T14:11:02.154Z,96445.66
2019-05-03T14:13:35.300Z,96445.36
2019-05-03T14:16:07.698Z,96439.73
2019-05-03T14:18:41.315Z,96434.05
2019-05-03T14:21:30.306Z,96433.01
2019-05-03T14:24:25.442Z,96431.34
2019-05-03T14:27:15.641Z,96424.62
2019-05-03T14:29:49.443Z,96427.73
2019-05-03T14:32:26.638Z,96429.59
2019-05-03T14:34:59.047Z,96427.85
2019-05-03T14:37:37.926Z,96428.33
2019-05-03T14:40:09.810Z,96423.95
2019-05-03T14:42:44.701Z,96424.43
2019-05-03T14:45:16.423Z,96427.13
2019-05-03T14:47:49.435Z,96426.28
2019-05-03T14:50:20.703Z,96429.53
2019-05-03T14:52:56.726Z,96425.90
2019-05-03T14:55:34.539Z,96417.17
2019-05-03T14:58:25.934Z,96423.07
2019-05-03T15:01:06.187Z,96421.11
2019-05-03T15:03:37.233Z,96418.13
2019-05-03T15:06:08.378Z,96420.95
2019-05-03T15:08:39.958Z,96416.63
2019-05-03T15:11:14.901Z,96416.78
2019-05-03T15:13:46.645Z,96417.09
2019-05-03T15:16:18.383Z,96411.55
2019-05-03T15:18:50.098Z,96410.52
2019-05-03T15:21:21.262Z,96405.95
2019-05-03T15:23:54.693Z,96410.16
2019-05-03T15:26:25.072Z,96413.99
2019-05-03T15:28:56.267Z,96417.64
2019-05-03T15:31:29.523Z,96419.91
2019-05-03T15:34:00.815Z,96417.11
2019-05-03T15:36:32.520Z,96414.18
2019-05-03T15:39:04.639Z,96408.89
2019-05-03T15:41:41.121Z,96404.95
2019-05-03T15:44:30.759Z,96407.46
2019-05-03T15:47:25.374Z,96403.22
2019-05-03T15:50:09.875Z,96402.79
2019-05-03T15:52:40.837Z,96394.30
2019-05-03T15:55:12.068Z,96389.97
2019-05-03T15:57:44.682Z,96385.50
2019-05-03T16:00:16.857Z,96382.00
2019-05-03T16:02:47.974Z,96382.20
2019-05-03T16:05:18.603Z,96386.63
2019-05-03T16:07:49.966Z,96386.39
2019-05-03T16:10:21.462Z,96379.93
2019-05-03T16:12:54.549Z,96384.69
2019-05-03T16:15:45.918Z,96382.31
2019-05-03T16:18:24.880Z,96385.34
2019-05-03T16:21:02.226Z,96386.16
2019-05-03T16:23:46.303Z,96378.05
2019-05-03T16:26:17.709Z,96373.17
2019-05-03T16:28:57.159Z,96372.06
2019-05-03T16:31:30.796Z,96372.94
2019-05-03T16:34:02.025Z,96368.92
2019-05-03T16:36:34.709Z,96368.48
2019-05-03T16:39:09.735Z,96367.59
2019-05-03T16:41:57.545Z,96362.78
2019-05-03T16:44:32.077Z,96366.19
2019-05-03T16:47:12.285Z,96368.66
2019-05-03T16:49:45.276Z,96369.05
2019-05-03T16:52:25.885Z,96368.91
2019-05-03T16:54:57.027Z,96363.89
2019-05-03T16:57:28.382Z,96369.20
2019-05-03T17:00:00.309Z,96371.88
2019-05-03T17:02:31.270Z,96371.08
2019-05-03T17:05:10.548Z,96375.22
2019-05-03T17:07:49.345Z,96377.95
2019-05-03T17:10:47.200Z,96371.56
2019-05-03T17:13:18.164Z,96374.84
2019-05-03T17:15:49.522Z,96374.94
2019-05-03T17:18:20.901Z,96379.80
2019-05-03T17:20:52.250Z,96388.27
2019-05-03T17:23:24.574Z,96387.97
2019-05-03T17:25:55.808Z,96390.03
2019-05-03T17:28:27.154Z,96383.48
2019-05-03T17:31:00.516Z,96385.16
2019-05-03T17:33:31.158Z,96382.94
2019-05-03T17:36:01.934Z,96385.16
2019-05-03T17:38:35.229Z,96384.59
2019-05-03T17:41:45.281Z,96377.95
2019-05-03T17:44:20.584Z,96389.77
2019-05-03T17:46:51.636Z,96382.81
2019-05-03T17:49:24.640Z,96387.02
2019-05-03T17:52:21.119Z,96390.78
2019-05-03T17:55:19.451Z,96392.94
2019-05-03T17:58:09.739Z,96395.01
2019-05-03T18:01:05.524Z,96393.91
2019-05-03T18:03:38.937Z,96397.35
2019-05-03T18:06:25.440Z,96393.95
2019-05-03T18:09:22.400Z,96400.50
2019-05-03T18:11:55.888Z,96399.39
2019-05-03T18:14:27.676Z,96401.77
2019-05-03T18:17:00.755Z,96396.20
2019-05-03T18:19:31.904Z,96396.69
2019-05-03T18:22:05.040Z,96400.78
2019-05-03T18:24:36.034Z,96405.72
2019-05-03T18:27:07.191Z,96404.89
2019-05-03T18:29:58.501Z,96398.63
2019-05-03T18:32:29.180Z,96405.44
2019-05-03T18:34:59.877Z,96406.45
2019-05-03T18:37:31.814Z,96402.20
2019-05-03T18:40:04.688Z,96406.48
2019-05-03T18:42:41.698Z,96416.93
2019-05-03T18:45:39.820Z,96408.13
2019-05-03T18:48:10.895Z,96411.95
2019-05-03T18:50:41.830Z,96418.98
2019-05-03T18:53:15.020Z,96423.28
2019-05-03T18:55:45.850Z,96421.84
2019-05-03T18:58:18.978Z,96429.25
2019-05-03T19:00:54.874Z,96432.45
2019-05-03T19:03:26.538Z,96429.82
2019-05-03T19:06:01.782Z,96430.70
2019-05-03T19:09:05.317Z,96430.23
2019-05-03T19:11:47.629Z,96432.05
2019-05-03T19:14:21.864Z,96440.38
2019-05-03T19:17:05.323Z,96435.52
2019-05-03T19:19:45.391Z,96434.57
2019-05-03T19:22:17.248Z,96439.33
2019-05-03T19:25:01.603Z,96442.42
2019-05-03T19:27:45.096Z,96435.14
2019-05-03T19:30:18.652Z,96440.53
2019-05-03T19:32:50.246Z,96447.56
2019-05-03T19:35:21.495Z,96449.59
2019-05-03T19:37:52.168Z,96449.02
2019-05-03T19:40:25.480Z,96450.45
2019-05-03T19:42:58.119Z,96450.11
2019-05-03T19:45:30.019Z,96450.10
2019-05-03T19:48:04.125Z,96447.43
2019-05-03T19:50:35.954Z,96454.92
2019-05-03T19:53:14.467Z,96451.22
2019-05-03T19:55:50.292Z,96458.44
2019-05-03T19:58:18.633Z,96453.75
2019-05-03T20:01:08.018Z,96458.00
2019-05-03T20:04:00.109Z,96451.24
2019-05-03T20:06:45.098Z,96449.63
2019-05-03T20:09:20.221Z,96446.55
2019-05-03T20:11:55.375Z,96455.49
2019-05-03T20:14:26.686Z,96446.63
2019-05-03T20:16:57.322Z,96446.77
2019-05-03T20:19:30.620Z,96453.55
2019-05-03T20:22:05.003Z,96447.11
2019-05-03T20:24:48.014Z,96444.25
2019-05-03T20:27:24.455Z,96450.58
2019-05-03T20:29:56.365Z,96440.69
2019-05-03T20:32:27.910Z,96445.58
2019-05-03T20:35:10.901Z,96448.91
2019-05-03T20:37:34.361Z,96441.33
2019-05-03T20:40:08.738Z,96445.66
2019-05-03T20:43:04.718Z,96437.20
2019-05-03T20:45:54.710Z,96430.03
2019-05-03T20:48:37.156Z,96427.63
2019-05-03T20:51:10.249Z,96430.22
2019-05-03T20:53:41.326Z,96432.45
2019-05-03T20:56:12.614Z,96439.37
2019-05-03T20:59:02.402Z,96436.97
2019-05-03T21:01:34.726Z,96443.72
2019-05-03T21:04:06.575Z,96446.27
2019-05-03T21:06:37.691Z,96453.97
2019-05-03T21:09:09.697Z,96458.20
2019-05-03T21:11:45.692Z,96453.34
2019-05-03T21:14:17.100Z,96454.81
2019-05-03T21:17:27.556Z,96453.91
2019-05-03T21:20:20.918Z,96455.97
2019-05-03T21:22:59.293Z,96445.50
2019-05-03T21:26:02.222Z,96444.86
2019-05-03T21:28:17.079Z,96442.58
2019-05-03T21:30:56.912Z,96440.95
2019-05-03T21:33:31.331Z,96435.75
2019-05-03T21:36:17.663Z,96433.95
2019-05-03T21:38:55.915Z,96432.22
2019-05-03T21:41:32.286Z,96435.95
2019-05-03T21:44:04.834Z,96439.78
2019-05-03T21:46:48.430Z,96439.67
2019-05-03T21:49:25.195Z,96442.27
2019-05-03T21:51:56.737Z,96440.38
2019-05-03T21:54:29.099Z,96449.32
2019-05-03T21:57:11.902Z,96445.53
2019-05-03T21:59:50.303Z,96438.23
2019-05-03T22:02:25.024Z,96438.33
2019-05-03T22:04:57.645Z,96437.23
2019-05-03T22:07:30.911Z,96433.69
2019-05-03T22:10:05.015Z,96439.67
2019-05-03T22:12:40.788Z,96441.38
2019-05-03T22:15:34.684Z,96450.15
2019-05-03T22:18:31.142Z,96445.36
2019-05-03T22:21:25.041Z,96448.68
2019-05-03T22:24:14.868Z,96443.88
2019-05-03T22:26:56.390Z,96441.91
2019-05-03T22:29:28.366Z,96434.87
2019-05-03T22:32:05.146Z,96435.50
2019-05-03T22:34:36.847Z,96436.77
2019-05-03T22:37:07.854Z,96436.13
2019-05-03T22:39:40.002Z,96443.42
2019-05-03T22:42:10.920Z,96440.55
2019-05-03T22:44:44.723Z,96442.58
2019-05-03T22:47:16.036Z,96442.28
2019-05-03T22:49:46.705Z,96437.72
2019-05-03T22:52:17.643Z,96430.17
2019-05-03T22:54:48.963Z,96432.69
2019-05-03T22:57:38.591Z,96432.79
2019-05-03T22:59:56.804Z,96426.09
2019-05-03T23:02:28.141Z,96422.91
2019-05-03T23:05:00.140Z,96419.27
2019-05-03T23:07:35.542Z,96417.64
2019-05-03T23:10:07.211Z,96409.09
2019-05-03T23:12:38.513Z,96410.47
2019-05-03T23:15:10.936Z,96403.73
2019-05-03T23:17:54.561Z,96405.52
2019-05-03T23:20:34.490Z,96400.71
2019-05-03T23:23:06.099Z,96402.98
2019-05-03T23:25:37.744Z,96395.96
2019-05-03T23:28:11.202Z,96395.19
2019-05-03T23:30:44.528Z,96396.00
2019-05-03T23:33:15.958Z,96381.42
2019-05-03T23:35:48.334Z,96382.08
2019-05-03T23:38:24.665Z,96381.16
2019-05-03T23:40:56.400Z,96383.95
2019-05-03T23:43:32.701Z,96375.24
2019-05-03T23:46:17.168Z,96375.34
2019-05-03T23:49:05.582Z,96363.80
2019-05-03T23:52:04.471Z,96364.21
2019-05-03T23:54:35.721Z,96357.80
2019-05-03T23:57:08.794Z,96358.61
2019-05-03T23:59:40.228Z,96348.53
